createdAt,value
2018-03-25T00:00:20.101Z,0.80
2018-03-25T00:02:47.077Z,0.80
2018-03-25T00:05:13.306Z,0.70
2018-03-25T00:07:40.272Z,0.80
2018-03-25T00:10:06.506Z,0.70
2018-03-25T00:12:32.779Z,0.70
2018-03-25T00:14:58.994Z,0.70
2018-03-25T00:17:25.200Z,0.70
2018-03-25T00:19:51.434Z,0.70
2018-03-25T00:22:17.664Z,0.60
2018-03-25T00:24:43.896Z,0.70
2018-03-25T00:27:10.106Z,0.70
2018-03-25T00:29:36.599Z,0.70
2018-03-25T00:32:02.846Z,0.60
2018-03-25T00:34:29.066Z,0.60
2018-03-25T00:36:55.298Z,0.50
2018-03-25T00:39:21.522Z,0.50
2018-03-25T00:41:47.779Z,0.40
2018-03-25T00:44:14.015Z,0.40
2018-03-25T00:46:40.527Z,0.40
2018-03-25T00:49:06.820Z,0.40
2018-03-25T00:51:33.047Z,0.40
2018-03-25T00:53:59.291Z,0.40
2018-03-25T00:56:25.495Z,0.40
2018-03-25T00:58:51.729Z,0.40
2018-03-25T01:01:17.953Z,0.50
2018-03-25T01:03:45.200Z,0.40
2018-03-25T01:06:11.464Z,0.40
2018-03-25T01:08:38.427Z,0.30
2018-03-25T01:11:05.433Z,0.20
2018-03-25T01:13:31.669Z,0.20
2018-03-25T01:16:09.411Z,0.20
2018-03-25T01:18:35.656Z,0.20
2018-03-25T01:21:01.905Z,0.20
2018-03-25T01:23:28.934Z,0.20
2018-03-25T01:25:55.148Z,0.10
2018-03-25T01:28:21.390Z,0.10
2018-03-25T01:30:47.611Z,0.10
2018-03-25T01:33:13.847Z,0.00
2018-03-25T01:35:40.049Z,0.00
2018-03-25T01:38:06.275Z,-0.10
2018-03-25T01:40:32.501Z,-0.10
2018-03-25T01:42:58.707Z,-0.10
2018-03-25T01:45:24.939Z,-0.10
2018-03-25T01:47:51.235Z,-0.10
2018-03-25T01:50:17.483Z,-0.10
2018-03-25T01:52:43.707Z,-0.10
2018-03-25T01:55:09.931Z,-0.10
2018-03-25T01:57:36.165Z,0.00
2018-03-25T02:00:02.428Z,0.00
2018-03-25T02:02:28.665Z,0.00
2018-03-25T02:04:54.879Z,0.00
2018-03-25T02:07:21.118Z,0.00
2018-03-25T02:09:47.335Z,0.00
2018-03-25T02:12:14.309Z,0.00
2018-03-25T02:14:40.522Z,0.00
2018-03-25T02:17:06.717Z,0.00
2018-03-25T02:19:33.215Z,0.00
2018-03-25T02:22:00.173Z,-0.10
2018-03-25T02:24:27.118Z,-0.10
2018-03-25T02:26:53.340Z,-0.10
2018-03-25T02:29:19.556Z,-0.10
2018-03-25T02:31:46.040Z,-0.10
2018-03-25T02:34:12.247Z,-0.10
2018-03-25T02:36:38.447Z,-0.10
2018-03-25T02:39:04.723Z,-0.10
2018-03-25T02:41:30.947Z,-0.20
2018-03-25T02:43:57.535Z,-0.20
2018-03-25T02:46:23.747Z,-0.20
2018-03-25T02:48:50.044Z,-0.20
2018-03-25T02:51:16.256Z,-0.20
2018-03-25T02:53:42.478Z,-0.20
2018-03-25T02:56:08.734Z,-0.30
2018-03-25T02:58:34.940Z,-0.30
2018-03-25T03:01:01.553Z,-0.30
2018-03-25T03:03:28.506Z,-0.30
2018-03-25T03:05:55.485Z,-0.30
2018-03-25T03:08:22.459Z,-0.40
2018-03-25T03:10:48.683Z,-0.40
2018-03-25T03:13:14.958Z,-0.40
2018-03-25T03:15:41.200Z,-0.40
2018-03-25T03:18:07.453Z,-0.50
2018-03-25T03:20:33.690Z,-0.50
2018-03-25T03:22:59.903Z,-0.50
2018-03-25T03:25:26.123Z,-0.50
2018-03-25T03:27:52.351Z,-0.60
2018-03-25T03:30:19.333Z,-0.60
2018-03-25T03:32:45.560Z,-0.60
2018-03-25T03:35:11.808Z,-0.60
2018-03-25T03:37:38.017Z,-0.70
2018-03-25T03:40:04.996Z,-0.70
2018-03-25T03:42:31.230Z,-0.70
2018-03-25T03:44:58.176Z,-0.70
2018-03-25T03:47:25.214Z,-0.70
2018-03-25T03:49:51.415Z,-0.70
2018-03-25T03:52:18.010Z,-0.70
2018-03-25T03:54:44.204Z,-0.70
2018-03-25T03:57:10.415Z,-0.70
2018-03-25T03:59:37.393Z,-0.70
2018-03-25T04:02:03.615Z,-0.70
2018-03-25T04:04:29.847Z,-0.80
2018-03-25T04:06:56.807Z,-0.80
2018-03-25T04:09:23.807Z,-0.90
2018-03-25T04:11:50.036Z,-0.90
2018-03-25T04:14:16.245Z,-0.90
2018-03-25T04:16:43.214Z,-1.00
2018-03-25T04:19:09.442Z,-1.00
2018-03-25T04:21:36.419Z,-1.00
2018-03-25T04:24:02.645Z,-1.00
2018-03-25T04:26:29.593Z,-1.00
2018-03-25T04:28:56.563Z,-1.00
2018-03-25T04:31:23.518Z,-1.00
2018-03-25T04:33:50.479Z,-1.00
2018-03-25T04:36:16.693Z,-1.00
2018-03-25T04:38:43.947Z,-1.00
2018-03-25T04:41:10.157Z,-1.00
2018-03-25T04:43:36.365Z,-1.00
2018-03-25T04:46:02.603Z,-1.00
2018-03-25T04:48:28.918Z,-1.00
2018-03-25T04:50:55.444Z,-1.00
2018-03-25T04:53:21.665Z,-1.10
2018-03-25T04:55:47.875Z,-1.10
2018-03-25T04:58:14.086Z,-1.10
2018-03-25T05:00:40.289Z,-1.10
2018-03-25T05:03:06.510Z,-1.10
2018-03-25T05:05:32.741Z,-1.20
2018-03-25T05:07:58.957Z,-1.10
2018-03-25T05:10:25.973Z,-1.10
2018-03-25T05:12:52.210Z,-1.10
2018-03-25T05:15:18.440Z,-1.10
2018-03-25T05:17:44.648Z,-1.00
2018-03-25T05:20:11.979Z,1.30
2018-03-25T05:22:38.212Z,1.30
2018-03-25T05:25:04.448Z,2.30
2018-03-25T05:27:31.418Z,3.30
2018-03-25T05:29:57.647Z,3.30
2018-03-25T05:32:23.878Z,3.70
2018-03-25T05:34:50.100Z,3.90
2018-03-25T05:37:16.324Z,3.90
2018-03-25T05:39:42.544Z,4.20
2018-03-25T05:42:09.490Z,4.50
2018-03-25T05:44:35.725Z,4.40
2018-03-25T05:47:02.004Z,4.60
2018-03-25T05:49:28.300Z,4.60
2018-03-25T05:51:54.520Z,4.40
2018-03-25T05:54:20.718Z,3.90
2018-03-25T05:56:46.946Z,3.30
2018-03-25T05:59:13.952Z,2.40
2018-03-25T06:01:40.193Z,2.40
2018-03-25T06:04:06.412Z,2.00
2018-03-25T06:06:32.657Z,1.80
2018-03-25T06:08:58.880Z,1.50
2018-03-25T06:11:25.117Z,1.40
2018-03-25T06:13:51.364Z,1.30
2018-03-25T06:16:17.574Z,1.20
2018-03-25T06:18:43.824Z,1.10
2018-03-25T06:21:10.805Z,0.90
2018-03-25T06:23:37.421Z,0.90
2018-03-25T06:26:04.393Z,0.80
2018-03-25T06:28:31.068Z,0.80
2018-03-25T06:30:57.317Z,0.70
2018-03-25T06:33:23.537Z,0.80
2018-03-25T06:35:49.769Z,0.80
2018-03-25T06:38:16.741Z,0.90
2018-03-25T06:40:42.951Z,0.90
2018-03-25T06:43:09.939Z,0.90
2018-03-25T06:45:36.159Z,0.90
2018-03-25T06:48:03.509Z,0.90
2018-03-25T06:50:29.745Z,1.00
2018-03-25T06:52:55.977Z,0.90
2018-03-25T06:55:22.255Z,0.90
2018-03-25T06:57:48.481Z,0.90
2018-03-25T07:00:15.453Z,1.40
2018-03-25T07:02:42.409Z,1.70
2018-03-25T07:05:09.366Z,2.00
2018-03-25T07:07:36.364Z,2.30
2018-03-25T07:10:02.616Z,2.30
2018-03-25T07:12:28.910Z,2.40
2018-03-25T07:14:55.138Z,2.50
2018-03-25T07:17:22.110Z,2.50
2018-03-25T07:19:48.357Z,2.50
2018-03-25T07:22:14.559Z,2.60
2018-03-25T07:24:40.798Z,2.60
2018-03-25T07:27:07.008Z,2.70
2018-03-25T07:29:33.228Z,2.80
2018-03-25T07:31:59.445Z,2.90
2018-03-25T07:34:26.392Z,2.90
2018-03-25T07:36:53.362Z,2.90
2018-03-25T07:39:20.318Z,3.00
2018-03-25T07:41:47.320Z,3.00
2018-03-25T07:44:13.546Z,3.00
2018-03-25T07:46:39.797Z,3.10
2018-03-25T07:49:06.037Z,3.10
2018-03-25T07:51:32.327Z,3.20
2018-03-25T07:53:59.397Z,3.30
2018-03-25T07:56:33.160Z,3.30
2018-03-25T07:58:59.394Z,3.30
2018-03-25T08:01:32.444Z,3.40
2018-03-25T08:03:58.696Z,3.40
2018-03-25T08:06:25.668Z,3.50
2018-03-25T08:08:51.886Z,3.50
2018-03-25T08:11:18.882Z,3.70
2018-03-25T08:13:45.128Z,3.70
2018-03-25T08:16:11.374Z,3.80
2018-03-25T08:18:37.592Z,3.90
2018-03-25T08:21:03.840Z,4.00
2018-03-25T08:23:30.055Z,4.10
2018-03-25T08:25:57.032Z,4.20
2018-03-25T08:28:23.256Z,4.20
2018-03-25T08:30:50.248Z,4.40
2018-03-25T08:33:16.496Z,4.40
2018-03-25T08:35:42.710Z,4.50
2018-03-25T08:38:09.235Z,4.50
2018-03-25T08:40:36.176Z,4.60
2018-03-25T08:43:02.394Z,4.60
2018-03-25T08:45:28.631Z,4.70
2018-03-25T08:47:54.843Z,5.00
2018-03-25T08:50:21.096Z,5.50
2018-03-25T08:52:48.089Z,6.30
2018-03-25T08:55:14.299Z,6.30
2018-03-25T08:57:40.515Z,6.70
2018-03-25T09:00:06.803Z,6.90
2018-03-25T09:02:33.049Z,7.20
2018-03-25T09:04:59.261Z,7.60
2018-03-25T09:07:25.485Z,7.80
2018-03-25T09:09:51.697Z,7.90
2018-03-25T09:12:18.678Z,8.00
2018-03-25T09:14:44.905Z,8.00
2018-03-25T09:17:11.177Z,8.00
2018-03-25T09:19:37.428Z,8.00
2018-03-25T09:22:03.706Z,7.90
2018-03-25T09:24:29.909Z,7.80
2018-03-25T09:26:56.138Z,7.70
2018-03-25T09:29:22.376Z,7.60
2018-03-25T09:31:48.625Z,7.50
2018-03-25T09:34:14.853Z,7.60
2018-03-25T09:36:41.074Z,7.60
2018-03-25T09:39:07.331Z,7.60
2018-03-25T09:41:33.554Z,7.70
2018-03-25T09:43:59.790Z,7.80
2018-03-25T09:46:26.747Z,7.90
2018-03-25T09:48:53.255Z,7.90
2018-03-25T09:51:19.503Z,8.00
2018-03-25T09:53:45.788Z,8.10
2018-03-25T09:56:12.082Z,8.20
2018-03-25T09:58:38.315Z,8.30
2018-03-25T10:01:10.680Z,8.40
2018-03-25T10:03:36.914Z,8.60
2018-03-25T10:06:03.184Z,8.80
2018-03-25T10:08:29.404Z,8.90
2018-03-25T10:10:55.690Z,9.00
2018-03-25T10:13:21.927Z,9.20
2018-03-25T10:15:48.884Z,9.50
2018-03-25T10:18:15.872Z,9.50
2018-03-25T10:20:42.106Z,9.50
2018-03-25T10:23:08.347Z,9.50
2018-03-25T10:25:35.445Z,9.60
2018-03-25T10:28:01.686Z,9.80
2018-03-25T10:30:27.933Z,9.90
2018-03-25T10:32:54.168Z,10.20
2018-03-25T10:35:20.396Z,10.50
2018-03-25T10:37:46.633Z,10.90
2018-03-25T10:40:12.874Z,11.30
2018-03-25T10:42:39.162Z,11.60
2018-03-25T10:45:05.392Z,11.80
2018-03-25T10:47:31.643Z,12.10
2018-03-25T10:49:57.862Z,12.30
2018-03-25T10:52:25.570Z,13.00
2018-03-25T10:54:52.566Z,13.40
2018-03-25T10:57:18.810Z,13.30
2018-03-25T10:59:45.038Z,13.70
2018-03-25T11:02:11.257Z,14.00
2018-03-25T11:04:37.508Z,14.20
2018-03-25T11:07:04.471Z,14.50
2018-03-25T11:09:30.717Z,14.40
2018-03-25T11:11:56.934Z,14.70
2018-03-25T11:14:23.917Z,14.70
2018-03-25T11:16:50.155Z,14.60
2018-03-25T11:19:16.409Z,14.60
2018-03-25T11:21:42.673Z,14.70
2018-03-25T11:24:08.920Z,15.00
2018-03-25T11:26:35.485Z,15.20
2018-03-25T11:29:08.736Z,15.40
2018-03-25T11:31:34.985Z,15.60
2018-03-25T11:34:01.237Z,15.80
2018-03-25T11:36:27.479Z,15.90
2018-03-25T11:38:53.716Z,16.00
2018-03-25T11:41:19.957Z,16.00
2018-03-25T11:43:46.249Z,16.10
2018-03-25T11:46:13.217Z,16.50
2018-03-25T11:48:40.216Z,16.40
2018-03-25T11:51:07.202Z,16.40
2018-03-25T11:53:33.443Z,16.40
2018-03-25T11:55:59.696Z,16.70
2018-03-25T11:58:25.913Z,17.00
2018-03-25T12:00:52.132Z,17.40
2018-03-25T12:03:19.126Z,17.50
2018-03-25T12:05:45.354Z,17.50
2018-03-25T12:08:11.618Z,17.70
2018-03-25T12:10:38.608Z,18.00
2018-03-25T12:13:04.844Z,18.00
2018-03-25T12:15:31.056Z,18.20
2018-03-25T12:17:58.076Z,18.50
2018-03-25T12:20:24.373Z,18.50
2018-03-25T12:22:51.334Z,18.40
2018-03-25T12:25:17.700Z,18.30
2018-03-25T12:27:43.970Z,18.20
2018-03-25T12:30:10.193Z,18.10
2018-03-25T12:32:36.452Z,18.10
2018-03-25T12:35:02.745Z,18.30
2018-03-25T12:37:28.966Z,18.60
2018-03-25T12:39:55.938Z,18.60
2018-03-25T12:42:22.188Z,18.60
2018-03-25T12:44:48.413Z,18.40
2018-03-25T12:47:15.482Z,18.40
2018-03-25T12:49:41.708Z,18.30
2018-03-25T12:52:08.702Z,18.70
2018-03-25T12:54:34.949Z,18.70
2018-03-25T12:57:01.197Z,19.00
2018-03-25T12:59:27.448Z,19.40
2018-03-25T13:01:53.686Z,19.50
2018-03-25T13:04:19.944Z,19.50
2018-03-25T13:06:46.192Z,19.50
2018-03-25T13:09:12.440Z,19.50
2018-03-25T13:11:38.691Z,19.70
2018-03-25T13:14:05.659Z,19.50
2018-03-25T13:16:32.639Z,19.30
2018-03-25T13:18:58.927Z,19.30
2018-03-25T13:21:25.166Z,19.20
2018-03-25T13:23:51.432Z,19.20
2018-03-25T13:26:18.689Z,19.40
2018-03-25T13:28:45.687Z,19.40
2018-03-25T13:31:12.005Z,19.40
2018-03-25T13:33:38.245Z,19.60
2018-03-25T13:36:05.225Z,19.50
2018-03-25T13:38:31.500Z,19.50
2018-03-25T13:40:57.711Z,19.40
2018-03-25T13:43:23.973Z,19.30
2018-03-25T13:45:50.247Z,19.60
2018-03-25T13:48:17.244Z,20.30
2018-03-25T13:50:43.501Z,20.30
2018-03-25T13:53:09.723Z,20.60
2018-03-25T13:55:36.041Z,20.70
2018-03-25T13:58:03.057Z,20.40
2018-03-25T14:00:29.316Z,20.40
2018-03-25T14:02:55.535Z,20.40
2018-03-25T14:05:21.760Z,20.50
2018-03-25T14:07:48.042Z,20.00
2018-03-25T14:10:14.284Z,19.90
2018-03-25T14:12:40.525Z,20.10
2018-03-25T14:15:06.740Z,20.00
2018-03-25T14:17:33.006Z,19.80
2018-03-25T14:19:59.252Z,19.70
2018-03-25T14:22:25.478Z,19.70
2018-03-25T14:24:51.731Z,19.90
2018-03-25T14:27:17.948Z,19.90
2018-03-25T14:29:44.232Z,19.80
2018-03-25T14:32:11.282Z,20.10
2018-03-25T14:34:38.278Z,20.30
2018-03-25T14:37:04.539Z,20.30
2018-03-25T14:39:30.758Z,20.30
2018-03-25T14:41:57.044Z,20.30
2018-03-25T14:44:23.254Z,20.40
2018-03-25T14:46:49.550Z,20.40
2018-03-25T14:49:16.522Z,20.30
2018-03-25T14:51:42.815Z,20.30
2018-03-25T14:54:09.048Z,20.00
2018-03-25T14:56:35.338Z,19.70
2018-03-25T14:59:01.556Z,19.80
2018-03-25T15:01:27.781Z,19.70
2018-03-25T15:03:54.048Z,19.50
2018-03-25T15:06:21.046Z,19.60
2018-03-25T15:08:47.320Z,19.60
2018-03-25T15:11:13.586Z,19.60
2018-03-25T15:13:40.570Z,19.70
2018-03-25T15:16:06.854Z,19.70
2018-03-25T15:18:33.082Z,19.70
2018-03-25T15:20:59.385Z,19.50
2018-03-25T15:23:25.624Z,19.60
2018-03-25T15:25:51.913Z,19.80
2018-03-25T15:28:18.203Z,20.00
2018-03-25T15:30:44.508Z,20.10
2018-03-25T15:33:10.782Z,20.20
2018-03-25T15:35:37.805Z,20.20
2018-03-25T15:38:04.147Z,20.20
2018-03-25T15:40:31.127Z,20.00
2018-03-25T15:42:57.367Z,20.00
2018-03-25T15:45:23.645Z,19.70
2018-03-25T15:47:49.883Z,19.50
2018-03-25T15:50:16.120Z,19.40
2018-03-25T15:52:42.343Z,19.30
2018-03-25T15:55:09.326Z,18.30
2018-03-25T15:57:35.619Z,18.30
2018-03-25T16:00:01.876Z,18.00
2018-03-25T16:02:28.896Z,18.20
2018-03-25T16:04:55.113Z,18.20
2018-03-25T16:07:21.616Z,18.40
2018-03-25T16:09:47.900Z,18.40
2018-03-25T16:12:14.849Z,18.40
2018-03-25T16:14:41.105Z,18.30
2018-03-25T16:17:07.373Z,18.40
2018-03-25T16:19:34.384Z,18.10
2018-03-25T16:22:00.664Z,18.10
2018-03-25T16:24:26.908Z,17.90
2018-03-25T16:26:53.149Z,17.80
2018-03-25T16:29:19.375Z,17.60
2018-03-25T16:31:45.626Z,17.30
2018-03-25T16:34:11.871Z,17.10
2018-03-25T16:36:38.112Z,17.00
2018-03-25T16:39:04.371Z,16.80
2018-03-25T16:41:30.875Z,16.50
2018-03-25T16:43:57.112Z,16.10
2018-03-25T16:46:23.364Z,15.60
2018-03-25T16:48:49.601Z,15.30
2018-03-25T16:51:15.880Z,14.90
2018-03-25T16:53:42.139Z,14.60
2018-03-25T16:56:09.131Z,14.10
2018-03-25T16:58:35.419Z,14.10
2018-03-25T17:01:01.789Z,13.90
2018-03-25T17:03:28.780Z,13.40
2018-03-25T17:05:55.066Z,13.40
2018-03-25T17:08:21.343Z,13.20
2018-03-25T17:10:47.601Z,12.90
2018-03-25T17:13:13.836Z,12.70
2018-03-25T17:15:40.083Z,12.50
2018-03-25T17:18:06.327Z,12.30
2018-03-25T17:20:32.575Z,12.10
2018-03-25T17:22:58.801Z,11.90
2018-03-25T17:25:25.035Z,11.70
2018-03-25T17:27:51.263Z,11.50
2018-03-25T17:30:18.305Z,11.10
2018-03-25T17:32:45.287Z,10.90
2018-03-25T17:35:11.532Z,10.90
2018-03-25T17:37:37.773Z,10.70
2018-03-25T17:40:04.149Z,10.50
2018-03-25T17:42:30.413Z,10.40
2018-03-25T17:44:56.659Z,10.20
2018-03-25T17:47:22.935Z,10.10
2018-03-25T17:49:49.198Z,10.00
2018-03-25T17:52:15.492Z,9.80
2018-03-25T17:54:42.528Z,9.40
2018-03-25T17:57:08.860Z,9.40
2018-03-25T17:59:35.137Z,9.30
2018-03-25T18:02:02.160Z,9.10
2018-03-25T18:04:28.502Z,9.00
2018-03-25T18:06:54.752Z,8.90
2018-03-25T18:09:21.028Z,8.80
2018-03-25T18:11:48.048Z,8.60
2018-03-25T18:14:14.336Z,8.60
2018-03-25T18:16:40.627Z,8.50
2018-03-25T18:19:06.920Z,8.40
2018-03-25T18:21:33.220Z,8.40
2018-03-25T18:23:59.516Z,8.20
2018-03-25T18:26:26.043Z,8.20
2018-03-25T18:28:53.038Z,8.00
2018-03-25T18:31:19.352Z,8.00
2018-03-25T18:33:46.378Z,7.80
2018-03-25T18:36:12.666Z,7.80
2018-03-25T18:38:38.958Z,7.80
2018-03-25T18:41:05.304Z,7.70
2018-03-25T18:43:31.882Z,7.60
2018-03-25T18:45:58.954Z,7.40
2018-03-25T18:48:25.256Z,7.40
2018-03-25T18:50:51.553Z,7.30
2018-03-25T18:53:17.897Z,7.30
2018-03-25T18:55:44.229Z,7.20
2018-03-25T18:58:10.532Z,7.10
2018-03-25T19:00:37.212Z,7.00
2018-03-25T19:03:04.262Z,6.90
2018-03-25T19:05:31.302Z,6.80
2018-03-25T19:07:57.675Z,6.90
2018-03-25T19:10:23.971Z,6.80
2018-03-25T19:12:50.277Z,6.80
2018-03-25T19:15:16.556Z,6.70
2018-03-25T19:17:43.126Z,6.60
2018-03-25T19:20:09.467Z,6.50
2018-03-25T19:22:35.783Z,6.50
2018-03-25T19:25:02.198Z,6.40
2018-03-25T19:27:29.261Z,6.30
2018-03-25T19:29:55.830Z,6.30
2018-03-25T19:32:22.179Z,6.20
2018-03-25T19:34:48.448Z,6.20
2018-03-25T19:37:14.786Z,6.10
2018-03-25T19:39:41.068Z,6.10
2018-03-25T19:42:07.408Z,6.00
2018-03-25T19:44:33.679Z,6.00
2018-03-25T19:46:59.947Z,5.90
2018-03-25T19:49:26.265Z,5.90
2018-03-25T19:51:52.569Z,5.90
2018-03-25T19:54:18.897Z,5.90
2018-03-25T19:56:46.013Z,5.80
2018-03-25T19:59:12.357Z,5.80
2018-03-25T20:01:38.676Z,5.70
2018-03-25T20:04:04.991Z,5.60
2018-03-25T20:06:32.020Z,5.50
2018-03-25T20:08:58.394Z,5.40
2018-03-25T20:11:24.647Z,5.40
2018-03-25T20:13:50.978Z,5.40
2018-03-25T20:16:17.320Z,5.30
2018-03-25T20:18:44.390Z,5.20
2018-03-25T20:21:10.703Z,5.20
2018-03-25T20:23:37.764Z,5.10
2018-03-25T20:26:04.810Z,5.10
2018-03-25T20:28:31.148Z,5.10
2018-03-25T20:30:57.568Z,5.00
2018-03-25T20:33:23.989Z,5.00
2018-03-25T20:35:50.261Z,5.00
2018-03-25T20:38:17.349Z,4.90
2018-03-25T20:40:43.661Z,4.90
2018-03-25T20:43:10.028Z,4.90
2018-03-25T20:45:36.328Z,4.80
2018-03-25T20:48:02.638Z,4.80
2018-03-25T20:50:29.712Z,4.60
2018-03-25T20:52:57.904Z,4.60
2018-03-25T20:55:24.398Z,4.60
2018-03-25T20:57:50.644Z,4.50
2018-03-25T21:00:16.908Z,4.50
2018-03-25T21:02:43.940Z,4.40
2018-03-25T21:05:10.191Z,4.40
2018-03-25T21:07:36.447Z,4.40
2018-03-25T21:10:02.701Z,4.30
2018-03-25T21:12:29.797Z,4.30
2018-03-25T21:14:56.975Z,4.20
2018-03-25T21:17:23.222Z,4.20
2018-03-25T21:19:49.492Z,4.20
2018-03-25T21:22:16.453Z,4.10
2018-03-25T21:24:43.220Z,4.00
2018-03-25T21:27:10.195Z,4.00
2018-03-25T21:29:36.800Z,4.00
2018-03-25T21:32:03.144Z,3.90
2018-03-25T21:34:29.383Z,3.90
2018-03-25T21:36:55.611Z,3.90
2018-03-25T21:39:22.075Z,3.80
2018-03-25T21:41:48.491Z,3.80
2018-03-25T21:44:14.719Z,3.80
2018-03-25T21:46:40.979Z,3.70
2018-03-25T21:49:07.227Z,3.70
2018-03-25T21:51:34.950Z,3.60
2018-03-25T21:54:01.185Z,3.60
2018-03-25T21:56:28.146Z,3.70
2018-03-25T21:58:54.392Z,3.60
2018-03-25T22:01:21.283Z,3.70
2018-03-25T22:03:47.531Z,3.70
2018-03-25T22:06:13.756Z,3.70
2018-03-25T22:08:39.999Z,3.70
2018-03-25T22:11:06.980Z,3.70
2018-03-25T22:13:33.216Z,3.70
2018-03-25T22:15:59.445Z,3.80
2018-03-25T22:18:29.676Z,3.80
2018-03-25T22:20:55.920Z,3.80
2018-03-25T22:23:22.176Z,3.90
2018-03-25T22:25:48.411Z,4.00
2018-03-25T22:28:14.688Z,4.10
2018-03-25T22:30:41.696Z,4.10
2018-03-25T22:33:07.944Z,4.10
2018-03-25T22:35:34.173Z,4.20
2018-03-25T22:38:00.755Z,4.20
2018-03-25T22:40:26.959Z,4.30
2018-03-25T22:42:53.197Z,4.30
2018-03-25T22:45:20.918Z,4.20
2018-03-25T22:47:47.145Z,4.20
2018-03-25T22:50:13.691Z,4.20
2018-03-25T22:52:39.948Z,4.20
2018-03-25T22:55:06.158Z,4.20
2018-03-25T22:57:32.705Z,4.30
2018-03-25T22:59:59.101Z,4.30
2018-03-25T23:02:25.337Z,4.30
2018-03-25T23:04:52.295Z,4.40
2018-03-25T23:07:18.523Z,4.40
2018-03-25T23:09:45.505Z,4.40
2018-03-25T23:12:11.740Z,4.40
2018-03-25T23:14:37.977Z,4.40
2018-03-25T23:17:04.207Z,4.50
2018-03-25T23:19:31.184Z,4.50
2018-03-25T23:21:57.418Z,4.50
2018-03-25T23:24:23.646Z,4.50
2018-03-25T23:26:50.613Z,4.60
2018-03-25T23:29:16.850Z,4.60
2018-03-25T23:31:43.858Z,4.60
2018-03-25T23:34:10.091Z,4.60
2018-03-25T23:36:36.293Z,4.60
2018-03-25T23:39:02.595Z,4.60
2018-03-25T23:41:28.803Z,4.70
2018-03-25T23:43:55.020Z,4.70
2018-03-25T23:46:21.255Z,4.70
2018-03-25T23:48:47.469Z,4.70
2018-03-25T23:51:13.701Z,4.70
2018-03-25T23:53:39.921Z,4.70
2018-03-25T23:56:06.168Z,4.70
2018-03-25T23:58:32.390Z,4.70
